createdAt,value
2022-12-23T00:00:00.000Z,10.24
2022-12-23T00:15:00.000Z,10.38
2022-12-23T00:30:00.000Z,11.05
2022-12-23T00:45:00.000Z,10.36
2022-12-23T01:00:00.000Z,10.44
2022-12-23T01:15:00.000Z,10.08
2022-12-23T01:30:00.000Z,10.72
2022-12-23T01:45:00.000Z,10.18
2022-12-23T02:00:00.000Z,10.16
2022-12-23T02:15:00.000Z,9.87
2022-12-23T02:30:00.000Z,9.74
2022-12-23T02:45:00.000Z,7.74
2022-12-23T03:15:00.000Z,7
2022-12-23T03:30:00.000Z,7
2022-12-23T03:30:00.000Z,7.14
2022-12-23T03:45:00.000Z,7.06
2022-12-23T04:00:00.000Z,6.74
2022-12-23T04:15:00.000Z,5.28
2022-12-23T04:30:00.000Z,5.14
2022-12-23T04:45:00.000Z,4.52
2022-12-23T05:00:00.000Z,4.58
2022-12-23T05:15:00.000Z,4.27
2022-12-23T05:30:00.000Z,4.42
2022-12-23T05:45:00.000Z,4.49
2022-12-23T06:00:00.000Z,4.32
2022-12-23T06:15:00.000Z,4.46
2022-12-23T06:30:00.000Z,4.38
2022-12-23T06:45:00.000Z,4.54
2022-12-23T07:00:00.000Z,4.61
2022-12-23T07:15:00.000Z,4.56
2022-12-23T07:30:00.000Z,4.78
2022-12-23T07:45:00.000Z,5.14
2022-12-23T08:00:00.000Z,4.49
2022-12-23T08:15:00.000Z,4.67
2022-12-23T08:30:00.000Z,4.8
2022-12-23T08:45:00.000Z,4.58
2022-12-23T09:00:00.000Z,4.71
2022-12-23T09:15:00.000Z,6.22
2022-12-23T09:30:00.000Z,4.99
2022-12-23T09:45:00.000Z,4.87
2022-12-23T10:00:00.000Z,5.04
2022-12-23T10:15:00.000Z,4.74
2022-12-23T10:30:00.000Z,5.27
2022-12-23T10:45:00.000Z,4.94
2022-12-23T11:00:00.000Z,4.47
2022-12-23T11:15:00.000Z,4.75
2022-12-23T11:30:00.000Z,4.81
2022-12-23T11:45:00.000Z,9.64
2022-12-23T12:00:00.000Z,4.85
2022-12-23T12:15:00.000Z,4.99
2022-12-23T12:30:00.000Z,5
2022-12-23T12:45:00.000Z,5.91
2022-12-23T13:00:00.000Z,5.84
2022-12-23T13:15:00.000Z,6.35
2022-12-23T13:30:00.000Z,6.25
2022-12-23T13:45:00.000Z,6.06
2022-12-23T14:00:00.000Z,5.89
2022-12-23T14:15:00.000Z,6.27
2022-12-23T14:30:00.000Z,6.29
2022-12-23T14:45:00.000Z,9.07
2022-12-23T15:00:00.000Z,6.15
2022-12-23T15:15:00.000Z,6.79
2022-12-23T15:30:00.000Z,6.99
2022-12-23T15:45:00.000Z,7.09
2022-12-23T16:15:00.000Z,10
2022-12-23T16:15:00.000Z,7.53
2022-12-23T16:30:00.000Z,7.78
2022-12-23T16:45:00.000Z,7.16
2022-12-23T17:00:00.000Z,7.24
2022-12-23T17:30:00.000Z,7
2022-12-23T17:30:00.000Z,7.16
2022-12-23T17:45:00.000Z,6.81
2022-12-23T18:00:00.000Z,6.87
2022-12-23T18:15:00.000Z,6.64
2022-12-23T18:30:00.000Z,6.74
2022-12-23T18:45:00.000Z,6.69
2022-12-23T19:00:00.000Z,6.8
2022-12-23T19:15:00.000Z,6.38
2022-12-23T19:30:00.000Z,5.85
2022-12-23T19:45:00.000Z,6.87
2022-12-23T20:00:00.000Z,5.94
2022-12-23T20:15:00.000Z,5.4
2022-12-23T20:30:00.000Z,6.74
2022-12-23T20:45:00.000Z,6.93
2022-12-23T21:00:00.000Z,6.58
2022-12-23T21:15:00.000Z,5.68
2022-12-23T21:30:00.000Z,5.02
2022-12-23T21:45:00.000Z,4.39
2022-12-23T22:00:00.000Z,4.95
2022-12-23T22:15:00.000Z,4.95
2022-12-23T22:30:00.000Z,4.86
2022-12-23T22:45:00.000Z,6.16
2022-12-23T23:00:00.000Z,6.34
2022-12-23T23:15:00.000Z,5.79
2022-12-23T23:30:00.000Z,5.98
2022-12-23T23:45:00.000Z,8.19
